^^
Station Historical Data
Daily Summary for May 22, 2017 Units:  Both    English   Metric
« Previous Day
Next Day »
Daily Weekly Monthly Yearly Custom
  High: Low: Average:
Temperature: 72.3 °F /  22.4 °C 44.2 °F /  6.8 °C 56.6 °F /  13.7 °C
Dew Point: 35.6 °F /  2 °C 22.1 °F /  -5.5 °C 30.2 °F /  -1 °C
Humidity: 67% 16% 41%
Wind Speed: 10.1mph /  16.3km/h - 1.5mph /  2.4km/h
Wind Gust: 14.0mph /  22.5km/h - -
Wind- - East
Pressure: 30.43 in /  1030.4 hPa 30.29 in /  1025.6 hPa -
Precipitation: 0.00 in /  0 mm    
Historical Graphs
 
 
Tabular Data for May 22, 2017
Time Temperature Dew Point Pressure Wind Wind Speed Wind Gust Humidity Rainfall Rate (Hourly) solar Conditions
00:00 50.0 °F /  10 °C 32.5 °F /  0.3 °C 30.41in /  1029.7hPa Calm   2.0mph /  3.2km/h 51% 0.00in /  0mm 0.0 W/m2
00:06 50.0 °F /  10 °C 32.5 °F /  0.3 °C 30.40in /  1029.3hPa Calm   1.0mph /  1.6km/h 51% 0.00in /  0mm 0.0 W/m2
00:13 50.0 °F /  10 °C 33.1 °F /  0.6 °C 30.40in /  1029.3hPa Calm   1.0mph /  1.6km/h 52% 0.00in /  0mm 0.0 W/m2
00:19 50.0 °F /  10 °C 33.1 °F /  0.6 °C 30.40in /  1029.3hPa Calm     52% 0.00in /  0mm 0.0 W/m2
00:25 50.2 °F /  10.1 °C 33.3 °F /  0.7 °C 30.40in /  1029.3hPa Calm   1.0mph /  1.6km/h 52% 0.00in /  0mm 0.0 W/m2
00:31 50.2 °F /  10.1 °C 33.3 °F /  0.7 °C 30.40in /  1029.3hPa Calm     52% 0.00in /  0mm 0.0 W/m2
00:37 49.8 °F /  9.9 °C 32.9 °F /  0.5 °C 30.40in /  1029.3hPa Calm   1.0mph /  1.6km/h 52% 0.00in /  0mm 0.0 W/m2
00:43 49.8 °F /  9.9 °C 32.9 °F /  0.5 °C 30.40in /  1029.3hPa Calm     52% 0.00in /  0mm 0.0 W/m2
00:49 49.6 °F /  9.8 °C 33.3 °F /  0.7 °C 30.40in /  1029.3hPa Calm     53% 0.00in /  0mm 0.0 W/m2
00:56 49.3 °F /  9.6 °C 33.3 °F /  0.7 °C 30.40in /  1029.3hPa Calm   1.0mph /  1.6km/h 54% 0.00in /  0mm 0.0 W/m2
01:02 48.9 °F /  9.4 °C 33.1 °F /  0.6 °C 30.39in /  1029hPa Calm     54% 0.00in /  0mm 0.0 W/m2
01:08 48.7 °F /  9.3 °C 33.3 °F /  0.7 °C 30.39in /  1029hPa Calm     55% 0.00in /  0mm 0.0 W/m2
01:14 48.6 °F /  9.2 °C 33.1 °F /  0.6 °C 30.39in /  1029hPa Calm     55% 0.00in /  0mm 0.0 W/m2
01:20 48.6 °F /  9.2 °C 33.1 °F /  0.6 °C 30.39in /  1029hPa Calm     55% 0.00in /  0mm 0.0 W/m2
01:26 48.4 °F /  9.1 °C 33.4 °F /  0.8 °C 30.39in /  1029hPa Calm     56% 0.00in /  0mm 0.0 W/m2
01:32 48.4 °F /  9.1 °C 33.4 °F /  0.8 °C 30.38in /  1028.7hPa Calm     56% 0.00in /  0mm 0.0 W/m2
01:38 48.4 °F /  9.1 °C 33.4 °F /  0.8 °C 30.38in /  1028.7hPa Calm     56% 0.00in /  0mm 0.0 W/m2
01:44 48.0 °F /  8.9 °C 33.4 °F /  0.8 °C 30.38in /  1028.7hPa Calm     57% 0.00in /  0mm 0.0 W/m2
01:51 48.0 °F /  8.9 °C 33.4 °F /  0.8 °C 30.38in /  1028.7hPa Calm     57% 0.00in /  0mm 0.0 W/m2
01:57 48.0 °F /  8.9 °C 33.4 °F /  0.8 °C 30.38in /  1028.7hPa Calm     57% 0.00in /  0mm 0.0 W/m2
02:03 47.8 °F /  8.8 °C 33.3 °F /  0.7 °C 30.38in /  1028.7hPa Calm     57% 0.00in /  0mm 0.0 W/m2
02:09 47.8 °F /  8.8 °C 33.8 °F /  1 °C 30.38in /  1028.7hPa Calm     58% 0.00in /  0mm 0.0 W/m2
02:15 47.8 °F /  8.8 °C 33.8 °F /  1 °C 30.38in /  1028.7hPa Calm     58% 0.00in /  0mm 0.0 W/m2
02:21 47.8 °F /  8.8 °C 33.8 °F /  1 °C 30.37in /  1028.3hPa Calm     58% 0.00in /  0mm 0.0 W/m2
02:27 47.7 °F /  8.7 °C 33.6 °F /  0.9 °C 30.37in /  1028.3hPa Calm   1.0mph /  1.6km/h 58% 0.00in /  0mm 0.0 W/m2
02:34 47.7 °F /  8.7 °C 33.6 °F /  0.9 °C 30.37in /  1028.3hPa Calm   1.0mph /  1.6km/h 58% 0.00in /  0mm 0.0 W/m2
02:40 47.7 °F /  8.7 °C 33.6 °F /  0.9 °C 30.37in /  1028.3hPa Calm     58% 0.00in /  0mm 0.0 W/m2
02:46 47.7 °F /  8.7 °C 33.6 °F /  0.9 °C 30.37in /  1028.3hPa Calm     58% 0.00in /  0mm 0.0 W/m2
02:52 47.5 °F /  8.6 °C 33.8 °F /  1 °C 30.37in /  1028.3hPa Calm     59% 0.00in /  0mm 0.0 W/m2
02:58 47.3 °F /  8.5 °C 33.6 °F /  0.9 °C 30.37in /  1028.3hPa Calm   1.0mph /  1.6km/h 59% 0.00in /  0mm 0.0 W/m2
03:04 47.1 °F /  8.4 °C 33.4 °F /  0.8 °C 30.37in /  1028.3hPa Calm     59% 0.00in /  0mm 0.0 W/m2
03:10 46.9 °F /  8.3 °C 33.8 °F /  1 °C 30.37in /  1028.3hPa Calm     60% 0.00in /  0mm 0.0 W/m2
03:17 46.8 °F /  8.2 °C 33.6 °F /  0.9 °C 30.37in /  1028.3hPa Calm     60% 0.00in /  0mm 0.0 W/m2
03:23 46.8 °F /  8.2 °C 33.6 °F /  0.9 °C 30.37in /  1028.3hPa Calm     60% 0.00in /  0mm 0.0 W/m2
03:29 46.8 °F /  8.2 °C 33.6 °F /  0.9 °C 30.37in /  1028.3hPa Calm   1.0mph /  1.6km/h 60% 0.00in /  0mm 0.0 W/m2
03:35 46.6 °F /  8.1 °C 33.4 °F /  0.8 °C 30.37in /  1028.3hPa Calm   1.0mph /  1.6km/h 60% 0.00in /  0mm 0.0 W/m2
03:41 46.6 °F /  8.1 °C 33.4 °F /  0.8 °C 30.37in /  1028.3hPa Calm   1.0mph /  1.6km/h 60% 0.00in /  0mm 0.0 W/m2
03:47 46.6 °F /  8.1 °C 33.4 °F /  0.8 °C 30.37in /  1028.3hPa Calm   1.0mph /  1.6km/h 60% 0.00in /  0mm 0.0 W/m2
03:54 46.6 °F /  8.1 °C 33.4 °F /  0.8 °C 30.37in /  1028.3hPa Calm   2.0mph /  3.2km/h 60% 0.00in /  0mm 0.0 W/m2
04:00 46.6 °F /  8.1 °C 33.8 °F /  1 °C 30.37in /  1028.3hPa Calm     61% 0.00in /  0mm 0.0 W/m2
04:06 46.6 °F /  8.1 °C 33.4 °F /  0.8 °C 30.37in /  1028.3hPa Calm     60% 0.00in /  0mm 0.0 W/m2
04:12 46.6 °F /  8.1 °C 33.8 °F /  1 °C 30.37in /  1028.3hPa Calm     61% 0.00in /  0mm 0.0 W/m2
04:18 46.4 °F /  8 °C 33.6 °F /  0.9 °C 30.37in /  1028.3hPa Calm     61% 0.00in /  0mm 0.0 W/m2
04:24 46.2 °F /  7.9 °C 33.4 °F /  0.8 °C 30.37in /  1028.3hPa Calm   1.0mph /  1.6km/h 61% 0.00in /  0mm 0.0 W/m2
04:30 46.0 °F /  7.8 °C 33.3 °F /  0.7 °C 30.37in /  1028.3hPa Calm   1.0mph /  1.6km/h 61% 0.00in /  0mm 0.0 W/m2
04:37 46.0 °F /  7.8 °C 33.8 °F /  1 °C 30.37in /  1028.3hPa Calm   1.0mph /  1.6km/h 62% 0.00in /  0mm 0.0 W/m2
04:43 45.9 °F /  7.7 °C 33.6 °F /  0.9 °C 30.38in /  1028.7hPa Calm     62% 0.00in /  0mm 0.0 W/m2
04:49 45.7 °F /  7.6 °C 33.4 °F /  0.8 °C 30.38in /  1028.7hPa Calm   1.0mph /  1.6km/h 62% 0.00in /  0mm 0.0 W/m2
04:55 45.5 °F /  7.5 °C 33.6 °F /  0.9 °C 30.38in /  1028.7hPa Calm   1.0mph /  1.6km/h 63% 0.00in /  0mm 0.0 W/m2
05:01 45.3 °F /  7.4 °C 33.4 °F /  0.8 °C 30.38in /  1028.7hPa Calm     63% 0.00in /  0mm 0.0 W/m2
05:07 45.3 °F /  7.4 °C 33.8 °F /  1 °C 30.38in /  1028.7hPa Calm   1.0mph /  1.6km/h 64% 0.00in /  0mm 0.0 W/m2
05:13 45.1 °F /  7.3 °C 33.3 °F /  0.7 °C 30.38in /  1028.7hPa Calm     63% 0.00in /  0mm 0.0 W/m2
05:20 45.0 °F /  7.2 °C 33.4 °F /  0.8 °C 30.38in /  1028.7hPa Calm     64% 0.00in /  0mm 0.0 W/m2
05:26 45.0 °F /  7.2 °C 33.4 °F /  0.8 °C 30.38in /  1028.7hPa Calm   1.0mph /  1.6km/h 64% 0.00in /  0mm 0.0 W/m2
05:32 44.8 °F /  7.1 °C 33.3 °F /  0.7 °C 30.38in /  1028.7hPa Calm   1.0mph /  1.6km/h 64% 0.00in /  0mm 0.0 W/m2
05:38 44.8 °F /  7.1 °C 33.8 °F /  1 °C 30.38in /  1028.7hPa Calm   2.0mph /  3.2km/h 65% 0.00in /  0mm 0.0 W/m2
05:44 44.8 °F /  7.1 °C 33.3 °F /  0.7 °C 30.38in /  1028.7hPa Calm     64% 0.00in /  0mm 0.0 W/m2
05:50 44.8 °F /  7.1 °C 33.3 °F /  0.7 °C 30.38in /  1028.7hPa Calm     64% 0.00in /  0mm 0.0 W/m2
05:57 44.8 °F /  7.1 °C 33.3 °F /  0.7 °C 30.38in /  1028.7hPa ENE 0.9mph /  1.4km/h 1.0mph /  1.6km/h 64% 0.00in /  0mm 0.0 W/m2
06:03 44.8 °F /  7.1 °C 33.3 °F /  0.7 °C 30.38in /  1028.7hPa Calm     64% 0.00in /  0mm 0.0 W/m2
06:09 44.6 °F /  7 °C 33.3 °F /  0.7 °C 30.38in /  1028.7hPa Calm   1.0mph /  1.6km/h 64% 0.00in /  0mm 0.0 W/m2
06:15 44.4 °F /  6.9 °C 33.4 °F /  0.8 °C 30.39in /  1029hPa Calm     65% 0.00in /  0mm 0.0 W/m2
06:21 44.4 °F /  6.9 °C 33.4 °F /  0.8 °C 30.39in /  1029hPa East 0.9mph /  1.4km/h 1.0mph /  1.6km/h 65% 0.00in /  0mm 0.0 W/m2
06:27 44.2 °F /  6.8 °C 33.3 °F /  0.7 °C 30.39in /  1029hPa Calm   1.0mph /  1.6km/h 65% 0.00in /  0mm 7.0 W/m2
06:33 44.2 °F /  6.8 °C 33.3 °F /  0.7 °C 30.39in /  1029hPa Calm     65% 0.00in /  0mm 9.0 W/m2
06:40 44.2 °F /  6.8 °C 33.6 °F /  0.9 °C 30.39in /  1029hPa Calm     66% 0.00in /  0mm 11.0 W/m2
06:46 44.2 °F /  6.8 °C 33.6 °F /  0.9 °C 30.39in /  1029hPa Calm     66% 0.00in /  0mm 12.0 W/m2
06:52 44.2 °F /  6.8 °C 33.6 °F /  0.9 °C 30.40in /  1029.3hPa Calm   1.0mph /  1.6km/h 66% 0.00in /  0mm 14.0 W/m2
06:58 44.2 °F /  6.8 °C 33.6 °F /  0.9 °C 30.40in /  1029.3hPa Calm     66% 0.00in /  0mm 16.0 W/m2
07:04 44.4 °F /  6.9 °C 34.2 °F /  1.2 °C 30.40in /  1029.3hPa Calm   1.0mph /  1.6km/h 67% 0.00in /  0mm 18.0 W/m2
07:10 44.6 °F /  7 °C 34.3 °F /  1.3 °C 30.40in /  1029.3hPa Calm   1.0mph /  1.6km/h 67% 0.00in /  0mm 19.0 W/m2
07:16 44.8 °F /  7.1 °C 34.5 °F /  1.4 °C 30.41in /  1029.7hPa Calm   1.0mph /  1.6km/h 67% 0.00in /  0mm 21.0 W/m2
07:23 45.1 °F /  7.3 °C 34.9 °F /  1.6 °C 30.41in /  1029.7hPa Calm   2.0mph /  3.2km/h 67% 0.00in /  0mm 21.0 W/m2
07:29 45.7 °F /  7.6 °C 35.1 °F /  1.7 °C 30.42in /  1030hPa Calm   2.0mph /  3.2km/h 66% 0.00in /  0mm 23.0 W/m2
07:35 46.6 °F /  8.1 °C 35.4 °F /  1.9 °C 30.42in /  1030hPa Calm   2.0mph /  3.2km/h 65% 0.00in /  0mm 25.0 W/m2
07:41 47.5 °F /  8.6 °C 35.6 °F /  2 °C 30.42in /  1030hPa Calm   3.0mph /  4.8km/h 63% 0.00in /  0mm 26.0 W/m2
07:47 48.7 °F /  9.3 °C 35.4 °F /  1.9 °C 30.42in /  1030hPa Calm   1.0mph /  1.6km/h 60% 0.00in /  0mm 26.0 W/m2
07:53 50.4 °F /  10.2 °C 35.2 °F /  1.8 °C 30.42in /  1030hPa ESE 4.0mph /  6.4km/h 8.0mph /  12.9km/h 56% 0.00in /  0mm 26.0 W/m2
07:59 52.2 °F /  11.2 °C 35.6 °F /  2 °C 30.43in /  1030.4hPa Calm   2.0mph /  3.2km/h 53% 0.00in /  0mm 28.0 W/m2
08:05 53.8 °F /  12.1 °C 35.6 °F /  2 °C 30.42in /  1030hPa Calm   3.0mph /  4.8km/h 50% 0.00in /  0mm 58.0 W/m2
08:11 55.2 °F /  12.9 °C 35.4 °F /  1.9 °C 30.42in /  1030hPa ESE 4.0mph /  6.4km/h 5.0mph /  8km/h 47% 0.00in /  0mm 362.0 W/m2
08:17 56.7 °F /  13.7 °C 35.6 °F /  2 °C 30.43in /  1030.4hPa ESE 6.9mph /  11.1km/h 7.0mph /  11.3km/h 45% 0.00in /  0mm 380.0 W/m2
08:23 57.7 °F /  14.3 °C 35.4 °F /  1.9 °C 30.43in /  1030.4hPa Calm   5.0mph /  8km/h 43% 0.00in /  0mm 401.0 W/m2
08:29 58.6 °F /  14.8 °C 35.6 °F /  2 °C 30.43in /  1030.4hPa NNE 0.9mph /  1.4km/h 8.0mph /  12.9km/h 42% 0.00in /  0mm 420.0 W/m2
08:35 59.4 °F /  15.2 °C 35.1 °F /  1.7 °C 30.42in /  1030hPa SE 4.9mph /  7.9km/h 7.0mph /  11.3km/h 40% 0.00in /  0mm 441.0 W/m2
08:41 59.9 °F /  15.5 °C 34.9 °F /  1.6 °C 30.42in /  1030hPa Calm   7.0mph /  11.3km/h 39% 0.00in /  0mm 459.0 W/m2
08:47 60.4 °F /  15.8 °C 35.4 °F /  1.9 °C 30.42in /  1030hPa NNE 6.0mph /  9.7km/h 8.0mph /  12.9km/h 39% 0.00in /  0mm 478.0 W/m2
08:53 61.0 °F /  16.1 °C 35.2 °F /  1.8 °C 30.42in /  1030hPa East 2.9mph /  4.7km/h 8.0mph /  12.9km/h 38% 0.00in /  0mm 494.0 W/m2
08:59 61.3 °F /  16.3 °C 35.6 °F /  2 °C 30.42in /  1030hPa SSE 4.0mph /  6.4km/h 7.0mph /  11.3km/h 38% 0.00in /  0mm 512.0 W/m2
09:05 62.1 °F /  16.7 °C 34.9 °F /  1.6 °C 30.42in /  1030hPa ESE 4.9mph /  7.9km/h 10.0mph /  16.1km/h 36% 0.00in /  0mm 527.0 W/m2
09:11 62.6 °F /  17 °C 35.2 °F /  1.8 °C 30.42in /  1030hPa ESE 2.0mph /  3.2km/h 8.0mph /  12.9km/h 36% 0.00in /  0mm 545.0 W/m2
09:17 63.1 °F /  17.3 °C 35.1 °F /  1.7 °C 30.42in /  1030hPa ENE 2.0mph /  3.2km/h 7.0mph /  11.3km/h 35% 0.00in /  0mm 559.0 W/m2
09:23 63.9 °F /  17.7 °C 35.6 °F /  2 °C 30.42in /  1030hPa NE 4.0mph /  6.4km/h 5.0mph /  8km/h 35% 0.00in /  0mm 573.0 W/m2
09:29 64.0 °F /  17.8 °C 34.3 °F /  1.3 °C 30.41in /  1029.7hPa ENE 4.9mph /  7.9km/h 9.0mph /  14.5km/h 33% 0.00in /  0mm 587.0 W/m2
09:35 64.4 °F /  18 °C 35.4 °F /  1.9 °C 30.41in /  1029.7hPa ENE 6.0mph /  9.7km/h 8.0mph /  12.9km/h 34% 0.00in /  0mm 599.0 W/m2
09:41 64.4 °F /  18 °C 34.7 °F /  1.5 °C 30.41in /  1029.7hPa ESE 4.0mph /  6.4km/h 7.0mph /  11.3km/h 33% 0.00in /  0mm 615.0 W/m2
09:47 64.8 °F /  18.2 °C 35.1 °F /  1.7 °C 30.41in /  1029.7hPa East 4.0mph /  6.4km/h 8.0mph /  12.9km/h 33% 0.00in /  0mm 631.0 W/m2
09:53 64.9 °F /  18.3 °C 34.3 °F /  1.3 °C 30.41in /  1029.7hPa ENE 2.9mph /  4.7km/h 9.0mph /  14.5km/h 32% 0.00in /  0mm 643.0 W/m2
09:59 65.5 °F /  18.6 °C 34.9 °F /  1.6 °C 30.41in /  1029.7hPa WSW 0.9mph /  1.4km/h 11.0mph /  17.7km/h 32% 0.00in /  0mm 656.0 W/m2
10:05 65.8 °F /  18.8 °C 34.3 °F /  1.3 °C 30.40in /  1029.3hPa NNE 2.9mph /  4.7km/h 6.0mph /  9.7km/h 31% 0.00in /  0mm 664.0 W/m2
10:11 66.0 °F /  18.9 °C 35.2 °F /  1.8 °C 30.40in /  1029.3hPa NE 6.0mph /  9.7km/h 12.0mph /  19.3km/h 32% 0.00in /  0mm 671.0 W/m2
10:17 66.6 °F /  19.2 °C 34.2 °F /  1.2 °C 30.39in /  1029hPa North 2.9mph /  4.7km/h 7.0mph /  11.3km/h 30% 0.00in /  0mm 686.0 W/m2
10:23 66.7 °F /  19.3 °C 34.3 °F /  1.3 °C 30.39in /  1029hPa Calm   8.0mph /  12.9km/h 30% 0.00in /  0mm 689.0 W/m2
10:29 66.9 °F /  19.4 °C 34.5 °F /  1.4 °C 30.39in /  1029hPa East 0.9mph /  1.4km/h 8.0mph /  12.9km/h 30% 0.00in /  0mm 701.0 W/m2
10:35 66.9 °F /  19.4 °C 33.6 °F /  0.9 °C 30.39in /  1029hPa East 0.9mph /  1.4km/h 11.0mph /  17.7km/h 29% 0.00in /  0mm 710.0 W/m2
10:41 66.9 °F /  19.4 °C 33.6 °F /  0.9 °C 30.38in /  1028.7hPa ENE 8.9mph /  14.3km/h 11.0mph /  17.7km/h 29% 0.00in /  0mm 719.0 W/m2
10:47 67.3 °F /  19.6 °C 33.1 °F /  0.6 °C 30.38in /  1028.7hPa North 6.9mph /  11.1km/h 11.0mph /  17.7km/h 28% 0.00in /  0mm 721.0 W/m2
10:53 67.5 °F /  19.7 °C 33.3 °F /  0.7 °C 30.37in /  1028.3hPa Calm   4.0mph /  6.4km/h 28% 0.00in /  0mm 728.0 W/m2
10:59 68.4 °F /  20.2 °C 32.2 °F /  0.1 °C 30.37in /  1028.3hPa NE 4.9mph /  7.9km/h 11.0mph /  17.7km/h 26% 0.00in /  0mm 735.0 W/m2
11:05 68.5 °F /  20.3 °C 32.4 °F /  0.2 °C 30.37in /  1028.3hPa SSE 4.9mph /  7.9km/h 6.0mph /  9.7km/h 26% 0.00in /  0mm 738.0 W/m2
11:11 69.1 °F /  20.6 °C 32.7 °F /  0.4 °C 30.37in /  1028.3hPa NNE 2.0mph /  3.2km/h 7.0mph /  11.3km/h 26% 0.00in /  0mm 742.0 W/m2
11:17 69.4 °F /  20.8 °C 32.0 °F /  0 °C 30.36in /  1028hPa ENE 8.9mph /  14.3km/h 11.0mph /  17.7km/h 25% 0.00in /  0mm 745.0 W/m2
11:23 69.4 °F /  20.8 °C 32.0 °F /  0 °C 30.36in /  1028hPa ENE 0.9mph /  1.4km/h 9.0mph /  14.5km/h 25% 0.00in /  0mm 747.0 W/m2
11:29 69.6 °F /  20.9 °C 32.2 °F /  0.1 °C 30.36in /  1028hPa ENE 2.9mph /  4.7km/h 9.0mph /  14.5km/h 25% 0.00in /  0mm 751.0 W/m2
11:35 70.0 °F /  21.1 °C 31.5 °F /  -0.3 °C 30.35in /  1027.7hPa NE 8.1mph /  13km/h 9.0mph /  14.5km/h 24% 0.00in /  0mm 751.0 W/m2
11:41 70.2 °F /  21.2 °C 31.6 °F /  -0.2 °C 30.35in /  1027.7hPa NE 8.9mph /  14.3km/h 13.0mph /  20.9km/h 24% 0.00in /  0mm 751.0 W/m2
11:47 70.3 °F /  21.3 °C 30.7 °F /  -0.7 °C 30.35in /  1027.7hPa NNE 4.0mph /  6.4km/h 10.0mph /  16.1km/h 23% 0.00in /  0mm 752.0 W/m2
11:53 70.3 °F /  21.3 °C 30.7 °F /  -0.7 °C 30.35in /  1027.7hPa NE 4.9mph /  7.9km/h 11.0mph /  17.7km/h 23% 0.00in /  0mm 747.0 W/m2
11:59 70.3 °F /  21.3 °C 29.7 °F /  -1.3 °C 30.35in /  1027.7hPa NE 2.9mph /  4.7km/h 9.0mph /  14.5km/h 22% 0.00in /  0mm 749.0 W/m2
12:05 70.5 °F /  21.4 °C 29.8 °F /  -1.2 °C 30.34in /  1027.3hPa Calm   8.0mph /  12.9km/h 22% 0.00in /  0mm 747.0 W/m2
12:11 70.9 °F /  21.6 °C 30.2 °F /  -1 °C 30.34in /  1027.3hPa ENE 2.0mph /  3.2km/h 10.0mph /  16.1km/h 22% 0.00in /  0mm 747.0 W/m2
12:17 70.9 °F /  21.6 °C 27.9 °F /  -2.3 °C 30.34in /  1027.3hPa NNE 6.9mph /  11.1km/h 12.0mph /  19.3km/h 20% 0.00in /  0mm 742.0 W/m2
12:23 70.9 °F /  21.6 °C 28.9 °F /  -1.7 °C 30.34in /  1027.3hPa ENE 2.0mph /  3.2km/h 5.0mph /  8km/h 21% 0.00in /  0mm 735.0 W/m2
12:29 71.1 °F /  21.7 °C 29.1 °F /  -1.6 °C 30.33in /  1027hPa East 4.0mph /  6.4km/h 10.0mph /  16.1km/h 21% 0.00in /  0mm 733.0 W/m2
12:35 71.4 °F /  21.9 °C 28.2 °F /  -2.1 °C 30.32in /  1026.6hPa SE 6.0mph /  9.7km/h 9.0mph /  14.5km/h 20% 0.00in /  0mm 729.0 W/m2
12:41 71.4 °F /  21.9 °C 29.5 °F /  -1.4 °C 30.32in /  1026.6hPa NNE 2.9mph /  4.7km/h 7.0mph /  11.3km/h 21% 0.00in /  0mm 721.0 W/m2
12:47 71.8 °F /  22.1 °C 26.1 °F /  -3.3 °C 30.31in /  1026.3hPa NE 6.0mph /  9.7km/h 11.0mph /  17.7km/h 18% 0.00in /  0mm 717.0 W/m2
12:53 71.8 °F /  22.1 °C 27.3 °F /  -2.6 °C 30.31in /  1026.3hPa NNW 4.9mph /  7.9km/h 9.0mph /  14.5km/h 19% 0.00in /  0mm 708.0 W/m2
12:59 71.6 °F /  22 °C 27.1 °F /  -2.7 °C 30.31in /  1026.3hPa North 6.0mph /  9.7km/h 10.0mph /  16.1km/h 19% 0.00in /  0mm 701.0 W/m2
13:05 71.6 °F /  22 °C 27.1 °F /  -2.7 °C 30.31in /  1026.3hPa NE 10.1mph /  16.3km/h 10.1mph /  16.3km/h 19% 0.00in /  0mm 694.0 W/m2
13:11 71.8 °F /  22.1 °C 27.3 °F /  -2.6 °C 30.30in /  1026hPa ENE 4.0mph /  6.4km/h 8.0mph /  12.9km/h 19% 0.00in /  0mm 682.0 W/m2
13:17 72.0 °F /  22.2 °C 27.5 °F /  -2.5 °C 30.30in /  1026hPa ENE 2.0mph /  3.2km/h 6.0mph /  9.7km/h 19% 0.00in /  0mm 673.0 W/m2
13:23 72.1 °F /  22.3 °C 27.7 °F /  -2.4 °C 30.30in /  1026hPa NNW 2.9mph /  4.7km/h 9.0mph /  14.5km/h 19% 0.00in /  0mm 663.0 W/m2
13:29 72.1 °F /  22.3 °C 26.2 °F /  -3.2 °C 30.30in /  1026hPa ESE 4.0mph /  6.4km/h 10.0mph /  16.1km/h 18% 0.00in /  0mm 650.0 W/m2
13:35 72.1 °F /  22.3 °C 27.7 °F /  -2.4 °C 30.30in /  1026hPa ESE 2.9mph /  4.7km/h 9.0mph /  14.5km/h 19% 0.00in /  0mm 640.0 W/m2
13:41 72.0 °F /  22.2 °C 24.8 °F /  -4 °C 30.30in /  1026hPa ENE 6.0mph /  9.7km/h 11.0mph /  17.7km/h 17% 0.00in /  0mm 628.0 W/m2
13:47 71.8 °F /  22.1 °C 26.1 °F /  -3.3 °C 30.30in /  1026hPa ENE 2.9mph /  4.7km/h 9.0mph /  14.5km/h 18% 0.00in /  0mm 615.0 W/m2
13:53 72.0 °F /  22.2 °C 26.1 °F /  -3.3 °C 30.30in /  1026hPa SE 6.9mph /  11.1km/h 8.0mph /  12.9km/h 18% 0.00in /  0mm 601.0 W/m2
13:59 72.1 °F /  22.3 °C 25.0 °F /  -3.9 °C 30.30in /  1026hPa ESE 2.9mph /  4.7km/h 11.0mph /  17.7km/h 17% 0.00in /  0mm 587.0 W/m2
14:05 72.1 °F /  22.3 °C 26.2 °F /  -3.2 °C 30.30in /  1026hPa ENE 2.9mph /  4.7km/h 6.0mph /  9.7km/h 18% 0.00in /  0mm 575.0 W/m2
14:11 72.1 °F /  22.3 °C 25.0 °F /  -3.9 °C 30.30in /  1026hPa NE 4.0mph /  6.4km/h 6.0mph /  9.7km/h 17% 0.00in /  0mm 561.0 W/m2
14:17 72.3 °F /  22.4 °C 25.0 °F /  -3.9 °C 30.30in /  1026hPa North 2.9mph /  4.7km/h 11.0mph /  17.7km/h 17% 0.00in /  0mm 545.0 W/m2
14:25 72.3 °F /  22.4 °C 25.0 °F /  -3.9 °C 30.29in /  1025.6hPa NNE 6.0mph /  9.7km/h 9.0mph /  14.5km/h 17% 0.00in /  0mm 524.0 W/m2
14:31 72.1 °F /  22.3 °C 23.5 °F /  -4.7 °C 30.29in /  1025.6hPa Calm   12.0mph /  19.3km/h 16% 0.00in /  0mm 508.0 W/m2
14:37 72.0 °F /  22.2 °C 23.4 °F /  -4.8 °C 30.29in /  1025.6hPa SE 4.0mph /  6.4km/h 14.0mph /  22.5km/h 16% 0.00in /  0mm 492.0 W/m2
14:43 72.0 °F /  22.2 °C 24.8 °F /  -4 °C 30.29in /  1025.6hPa ENE 4.9mph /  7.9km/h 8.0mph /  12.9km/h 17% 0.00in /  0mm 475.0 W/m2
14:49 72.0 °F /  22.2 °C 24.8 °F /  -4 °C 30.29in /  1025.6hPa NE 4.9mph /  7.9km/h 13.0mph /  20.9km/h 17% 0.00in /  0mm 455.0 W/m2
14:55 72.1 °F /  22.3 °C 25.0 °F /  -3.9 °C 30.29in /  1025.6hPa NE 2.0mph /  3.2km/h 9.0mph /  14.5km/h 17% 0.00in /  0mm 439.0 W/m2
15:01 72.0 °F /  22.2 °C 23.4 °F /  -4.8 °C 30.29in /  1025.6hPa ENE 6.9mph /  11.1km/h 7.0mph /  11.3km/h 16% 0.00in /  0mm 422.0 W/m2
15:07 71.8 °F /  22.1 °C 24.6 °F /  -4.1 °C 30.30in /  1026hPa NE 2.9mph /  4.7km/h 8.0mph /  12.9km/h 17% 0.00in /  0mm 403.0 W/m2
15:13 71.6 °F /  22 °C 25.9 °F /  -3.4 °C 30.30in /  1026hPa SE 2.9mph /  4.7km/h 9.0mph /  14.5km/h 18% 0.00in /  0mm 381.0 W/m2
15:19 71.4 °F /  21.9 °C 24.3 °F /  -4.3 °C 30.29in /  1025.6hPa ENE 0.9mph /  1.4km/h 9.0mph /  14.5km/h 17% 0.00in /  0mm 362.0 W/m2
15:25 71.2 °F /  21.8 °C 25.5 °F /  -3.6 °C 30.30in /  1026hPa ENE 6.9mph /  11.1km/h 12.0mph /  19.3km/h 18% 0.00in /  0mm 343.0 W/m2
15:31 71.1 °F /  21.7 °C 25.3 °F /  -3.7 °C 30.30in /  1026hPa SW 6.9mph /  11.1km/h 8.0mph /  12.9km/h 18% 0.00in /  0mm 40.0 W/m2
15:37 70.5 °F /  21.4 °C 25.0 °F /  -3.9 °C 30.30in /  1026hPa NNE 0.9mph /  1.4km/h 7.0mph /  11.3km/h 18% 0.00in /  0mm 35.0 W/m2
15:43 70.3 °F /  21.3 °C 23.5 °F /  -4.7 °C 30.30in /  1026hPa WNW 4.9mph /  7.9km/h 8.0mph /  12.9km/h 17% 0.00in /  0mm 33.0 W/m2
15:49 70.2 °F /  21.2 °C 24.6 °F /  -4.1 °C 30.30in /  1026hPa ENE 8.1mph /  13km/h 9.0mph /  14.5km/h 18% 0.00in /  0mm 32.0 W/m2
15:55 70.0 °F /  21.1 °C 23.2 °F /  -4.9 °C 30.31in /  1026.3hPa NE 4.9mph /  7.9km/h 10.0mph /  16.1km/h 17% 0.00in /  0mm 28.0 W/m2
16:01 69.6 °F /  20.9 °C 22.8 °F /  -5.1 °C 30.31in /  1026.3hPa NE 2.0mph /  3.2km/h 7.0mph /  11.3km/h 17% 0.00in /  0mm 25.0 W/m2
16:07 69.3 °F /  20.7 °C 23.9 °F /  -4.5 °C 30.31in /  1026.3hPa SE 0.9mph /  1.4km/h 8.0mph /  12.9km/h 18% 0.00in /  0mm 21.0 W/m2
16:13 69.1 °F /  20.6 °C 23.7 °F /  -4.6 °C 30.31in /  1026.3hPa NE 2.0mph /  3.2km/h 6.0mph /  9.7km/h 18% 0.00in /  0mm 19.0 W/m2
16:19 68.7 °F /  20.4 °C 23.5 °F /  -4.7 °C 30.31in /  1026.3hPa ENE 0.9mph /  1.4km/h 5.0mph /  8km/h 18% 0.00in /  0mm 18.0 W/m2
16:29 68.4 °F /  20.2 °C 23.2 °F /  -4.9 °C 30.31in /  1026.3hPa NNE 2.0mph /  3.2km/h 6.0mph /  9.7km/h 18% 0.00in /  0mm 16.0 W/m2
16:35 68.2 °F /  20.1 °C 23.0 °F /  -5 °C 30.31in /  1026.3hPa NNE 4.9mph /  7.9km/h 9.0mph /  14.5km/h 18% 0.00in /  0mm 16.0 W/m2
16:41 67.8 °F /  19.9 °C 22.8 °F /  -5.1 °C 30.31in /  1026.3hPa NE 4.0mph /  6.4km/h 6.0mph /  9.7km/h 18% 0.00in /  0mm 14.0 W/m2
16:47 67.6 °F /  19.8 °C 23.9 °F /  -4.5 °C 30.31in /  1026.3hPa Calm   7.0mph /  11.3km/h 19% 0.00in /  0mm 12.0 W/m2
16:53 67.5 °F /  19.7 °C 23.7 °F /  -4.6 °C 30.32in /  1026.6hPa ENE 2.9mph /  4.7km/h 8.0mph /  12.9km/h 19% 0.00in /  0mm 11.0 W/m2
16:59 67.1 °F /  19.5 °C 22.1 °F /  -5.5 °C 30.32in /  1026.6hPa NE 2.0mph /  3.2km/h 5.0mph /  8km/h 18% 0.00in /  0mm 9.0 W/m2
17:05 66.6 °F /  19.2 °C 23.0 °F /  -5 °C 30.32in /  1026.6hPa Calm   4.0mph /  6.4km/h 19% 0.00in /  0mm 7.0 W/m2
17:11 66.0 °F /  18.9 °C 22.6 °F /  -5.2 °C 30.33in /  1027hPa Calm   2.0mph /  3.2km/h 19% 0.00in /  0mm 5.0 W/m2
17:18 65.7 °F /  18.7 °C 23.5 °F /  -4.7 °C 30.33in /  1027hPa Calm   1.0mph /  1.6km/h 20% 0.00in /  0mm 0.0 W/m2
17:24 65.1 °F /  18.4 °C 24.3 °F /  -4.3 °C 30.33in /  1027hPa Calm     21% 0.00in /  0mm 0.0 W/m2
17:30 64.6 °F /  18.1 °C 25.9 °F /  -3.4 °C 30.33in /  1027hPa Calm     23% 0.00in /  0mm 0.0 W/m2
17:36 63.7 °F /  17.6 °C 26.2 °F /  -3.2 °C 30.33in /  1027hPa Calm     24% 0.00in /  0mm 0.0 W/m2
17:42 62.8 °F /  17.1 °C 25.5 °F /  -3.6 °C 30.34in /  1027.3hPa Calm     24% 0.00in /  0mm 0.0 W/m2
17:48 61.5 °F /  16.4 °C 25.3 °F /  -3.7 °C 30.34in /  1027.3hPa Calm     25% 0.00in /  0mm 0.0 W/m2
17:54 60.6 °F /  15.9 °C 25.5 °F /  -3.6 °C 30.34in /  1027.3hPa Calm     26% 0.00in /  0mm 0.0 W/m2
18:00 59.7 °F /  15.4 °C 25.7 °F /  -3.5 °C 30.34in /  1027.3hPa Calm     27% 0.00in /  0mm 0.0 W/m2
18:06 59.2 °F /  15.1 °C 27.0 °F /  -2.8 °C 30.35in /  1027.7hPa Calm   1.0mph /  1.6km/h 29% 0.00in /  0mm 0.0 W/m2
18:12 58.5 °F /  14.7 °C 25.5 °F /  -3.6 °C 30.35in /  1027.7hPa Calm   1.0mph /  1.6km/h 28% 0.00in /  0mm 0.0 W/m2
18:18 57.7 °F /  14.3 °C 25.7 °F /  -3.5 °C 30.35in /  1027.7hPa Calm   1.0mph /  1.6km/h 29% 0.00in /  0mm 0.0 W/m2
18:24 57.4 °F /  14.1 °C 26.2 °F /  -3.2 °C 30.36in /  1028hPa Calm     30% 0.00in /  0mm 0.0 W/m2
18:31 56.7 °F /  13.7 °C 25.5 °F /  -3.6 °C 30.36in /  1028hPa Calm     30% 0.00in /  0mm 0.0 W/m2
18:37 56.5 °F /  13.6 °C 26.2 °F /  -3.2 °C 30.37in /  1028.3hPa Calm     31% 0.00in /  0mm 0.0 W/m2
18:42 55.9 °F /  13.3 °C 26.4 °F /  -3.1 °C 30.37in /  1028.3hPa Calm   1.0mph /  1.6km/h 32% 0.00in /  0mm 0.0 W/m2
18:49 55.6 °F /  13.1 °C 27.0 °F /  -2.8 °C 30.37in /  1028.3hPa Calm     33% 0.00in /  0mm 0.0 W/m2
18:55 55.0 °F /  12.8 °C 26.4 °F /  -3.1 °C 30.38in /  1028.7hPa Calm     33% 0.00in /  0mm 0.0 W/m2
19:01 54.7 °F /  12.6 °C 26.8 °F /  -2.9 °C 30.38in /  1028.7hPa Calm     34% 0.00in /  0mm 0.0 W/m2
19:07 54.3 °F /  12.4 °C 27.3 °F /  -2.6 °C 30.38in /  1028.7hPa Calm   1.0mph /  1.6km/h 35% 0.00in /  0mm 0.0 W/m2
19:13 54.1 °F /  12.3 °C 27.1 °F /  -2.7 °C 30.38in /  1028.7hPa ENE 0.9mph /  1.4km/h 1.0mph /  1.6km/h 35% 0.00in /  0mm 0.0 W/m2
19:19 54.0 °F /  12.2 °C 27.7 °F /  -2.4 °C 30.39in /  1029hPa Calm     36% 0.00in /  0mm 0.0 W/m2
19:25 53.8 °F /  12.1 °C 27.5 °F /  -2.5 °C 30.39in /  1029hPa ENE 2.0mph /  3.2km/h 2.0mph /  3.2km/h 36% 0.00in /  0mm 0.0 W/m2
19:31 53.8 °F /  12.1 °C 27.5 °F /  -2.5 °C 30.39in /  1029hPa Calm   3.0mph /  4.8km/h 36% 0.00in /  0mm 0.0 W/m2
19:38 53.4 °F /  11.9 °C 27.1 °F /  -2.7 °C 30.39in /  1029hPa Calm   1.0mph /  1.6km/h 36% 0.00in /  0mm 0.0 W/m2
19:44 53.2 °F /  11.8 °C 27.7 °F /  -2.4 °C 30.39in /  1029hPa Calm   1.0mph /  1.6km/h 37% 0.00in /  0mm 0.0 W/m2
19:50 52.9 °F /  11.6 °C 27.3 °F /  -2.6 °C 30.39in /  1029hPa Calm     37% 0.00in /  0mm 0.0 W/m2
19:56 52.5 °F /  11.4 °C 27.7 °F /  -2.4 °C 30.40in /  1029.3hPa Calm   1.0mph /  1.6km/h 38% 0.00in /  0mm 0.0 W/m2
20:00 52.3 °F /  11.3 °C 27.5 °F /  -2.5 °C 30.40in /  1029.3hPa Calm   1.0mph /  1.6km/h 38% 0.00in /  0mm 0.0 W/m2
20:06 52.2 °F /  11.2 °C 27.3 °F /  -2.6 °C 30.40in /  1029.3hPa Calm     38% 0.00in /  0mm 0.0 W/m2
20:10 52.0 °F /  11.1 °C 27.9 °F /  -2.3 °C 30.40in /  1029.3hPa ESE 0.9mph /  1.4km/h 1.0mph /  1.6km/h 39% 0.00in /  0mm 0.0 W/m2
20:16 51.4 °F /  10.8 °C 27.3 °F /  -2.6 °C 30.40in /  1029.3hPa Calm   1.0mph /  1.6km/h 39% 0.00in /  0mm 0.0 W/m2
20:22 51.3 °F /  10.7 °C 27.7 °F /  -2.4 °C 30.40in /  1029.3hPa Calm   1.0mph /  1.6km/h 40% 0.00in /  0mm 0.0 W/m2
20:29 51.1 °F /  10.6 °C 28.2 °F /  -2.1 °C 30.40in /  1029.3hPa Calm   1.0mph /  1.6km/h 41% 0.00in /  0mm 0.0 W/m2
20:35 51.1 °F /  10.6 °C 28.2 °F /  -2.1 °C 30.40in /  1029.3hPa Calm     41% 0.00in /  0mm 0.0 W/m2
20:41 51.1 °F /  10.6 °C 28.2 °F /  -2.1 °C 30.41in /  1029.7hPa Calm   1.0mph /  1.6km/h 41% 0.00in /  0mm 0.0 W/m2
20:47 50.7 °F /  10.4 °C 27.9 °F /  -2.3 °C 30.41in /  1029.7hPa Calm     41% 0.00in /  0mm 0.0 W/m2
20:53 50.5 °F /  10.3 °C 27.7 °F /  -2.4 °C 30.40in /  1029.3hPa Calm     41% 0.00in /  0mm 0.0 W/m2
20:59 50.4 °F /  10.2 °C 28.2 °F /  -2.1 °C 30.41in /  1029.7hPa Calm     42% 0.00in /  0mm 0.0 W/m2
21:05 50.4 °F /  10.2 °C 28.8 °F /  -1.8 °C 30.41in /  1029.7hPa Calm   1.0mph /  1.6km/h 43% 0.00in /  0mm 0.0 W/m2
21:11 50.2 °F /  10.1 °C 28.6 °F /  -1.9 °C 30.41in /  1029.7hPa Calm     43% 0.00in /  0mm 0.0 W/m2
21:18 49.8 °F /  9.9 °C 28.2 °F /  -2.1 °C 30.41in /  1029.7hPa Calm     43% 0.00in /  0mm 0.0 W/m2
21:24 49.8 °F /  9.9 °C 28.2 °F /  -2.1 °C 30.41in /  1029.7hPa Calm   1.0mph /  1.6km/h 43% 0.00in /  0mm 0.0 W/m2
21:30 49.6 °F /  9.8 °C 28.6 °F /  -1.9 °C 30.41in /  1029.7hPa Calm   2.0mph /  3.2km/h 44% 0.00in /  0mm 0.0 W/m2
21:36 49.5 °F /  9.7 °C 28.4 °F /  -2 °C 30.41in /  1029.7hPa Calm   1.0mph /  1.6km/h 44% 0.00in /  0mm 0.0 W/m2
21:42 49.3 °F /  9.6 °C 28.2 °F /  -2.1 °C 30.41in /  1029.7hPa Calm   1.0mph /  1.6km/h 44% 0.00in /  0mm 0.0 W/m2
21:48 49.1 °F /  9.5 °C 28.8 °F /  -1.8 °C 30.41in /  1029.7hPa Calm   4.0mph /  6.4km/h 45% 0.00in /  0mm 0.0 W/m2
21:54 48.9 °F /  9.4 °C 28.6 °F /  -1.9 °C 30.41in /  1029.7hPa Calm   2.0mph /  3.2km/h 45% 0.00in /  0mm 0.0 W/m2
22:00 48.9 °F /  9.4 °C 28.6 °F /  -1.9 °C 30.41in /  1029.7hPa Calm   1.0mph /  1.6km/h 45% 0.00in /  0mm 0.0 W/m2
22:07 48.7 °F /  9.3 °C 28.4 °F /  -2 °C 30.41in /  1029.7hPa ENE 0.9mph /  1.4km/h 4.0mph /  6.4km/h 45% 0.00in /  0mm 0.0 W/m2
22:13 48.7 °F /  9.3 °C 28.9 °F /  -1.7 °C 30.41in /  1029.7hPa Calm   2.0mph /  3.2km/h 46% 0.00in /  0mm 0.0 W/m2
22:19 48.7 °F /  9.3 °C 28.9 °F /  -1.7 °C 30.41in /  1029.7hPa Calm   3.0mph /  4.8km/h 46% 0.00in /  0mm 0.0 W/m2
22:25 48.6 °F /  9.2 °C 28.8 °F /  -1.8 °C 30.41in /  1029.7hPa Calm   2.0mph /  3.2km/h 46% 0.00in /  0mm 0.0 W/m2
22:31 48.6 °F /  9.2 °C 28.8 °F /  -1.8 °C 30.41in /  1029.7hPa Calm     46% 0.00in /  0mm 0.0 W/m2
22:37 48.4 °F /  9.1 °C 29.1 °F /  -1.6 °C 30.41in /  1029.7hPa Calm   5.0mph /  8km/h 47% 0.00in /  0mm 0.0 W/m2
22:44 48.2 °F /  9 °C 28.9 °F /  -1.7 °C 30.41in /  1029.7hPa Calm   2.0mph /  3.2km/h 47% 0.00in /  0mm 0.0 W/m2
22:50 48.0 °F /  8.9 °C 28.8 °F /  -1.8 °C 30.41in /  1029.7hPa Calm   3.0mph /  4.8km/h 47% 0.00in /  0mm 0.0 W/m2
22:56 47.7 °F /  8.7 °C 28.9 °F /  -1.7 °C 30.41in /  1029.7hPa ENE 0.9mph /  1.4km/h 2.0mph /  3.2km/h 48% 0.00in /  0mm 0.0 W/m2
23:02 47.5 °F /  8.6 °C 28.8 °F /  -1.8 °C 30.41in /  1029.7hPa Calm   4.0mph /  6.4km/h 48% 0.00in /  0mm 0.0 W/m2
23:08 47.3 °F /  8.5 °C 29.1 °F /  -1.6 °C 30.41in /  1029.7hPa Calm   2.0mph /  3.2km/h 49% 0.00in /  0mm 0.0 W/m2
23:14 47.1 °F /  8.4 °C 28.9 °F /  -1.7 °C 30.41in /  1029.7hPa Calm   2.0mph /  3.2km/h 49% 0.00in /  0mm 0.0 W/m2
23:20 47.1 °F /  8.4 °C 29.5 °F /  -1.4 °C 30.41in /  1029.7hPa Calm     50% 0.00in /  0mm 0.0 W/m2
23:27 46.9 °F /  8.3 °C 29.3 °F /  -1.5 °C 30.41in /  1029.7hPa Calm     50% 0.00in /  0mm 0.0 W/m2
23:33 46.9 °F /  8.3 °C 29.3 °F /  -1.5 °C 30.41in /  1029.7hPa Calm     50% 0.00in /  0mm 0.0 W/m2
23:39 46.8 °F /  8.2 °C 29.7 °F /  -1.3 °C 30.40in /  1029.3hPa Calm     51% 0.00in /  0mm 0.0 W/m2
23:45 46.6 °F /  8.1 °C 29.5 °F /  -1.4 °C 30.40in /  1029.3hPa Calm     51% 0.00in /  0mm 0.0 W/m2
23:51 46.4 °F /  8 °C 29.7 °F /  -1.3 °C 30.40in /  1029.3hPa Calm   1.0mph /  1.6km/h 52% 0.00in /  0mm 0.0 W/m2
23:57 46.2 °F /  7.9 °C 29.5 °F /  -1.4 °C 30.41in /  1029.7hPa Calm     52% 0.00in /  0mm 0.0 W/m2
Olympia, Windhoek, Namibia
Compliments of Weather Underground - 3 mb